sensor_id;sensor_type;location;lat;lon;timestamp;pressure;altitude;pressure_sealevel;temperature;humidity
21728;BME280;11026;50.560;17.852;2024-01-30T00:02:06;101237.41;;;2.43;89.55
21728;BME280;11026;50.560;17.852;2024-01-30T00:04:34;101236.59;;;2.49;89.70
21728;BME280;11026;50.560;17.852;2024-01-30T00:07:03;101233.19;;;2.51;89.62
21728;BME280;11026;50.560;17.852;2024-01-30T00:09:31;101234.72;;;2.40;90.01
21728;BME280;11026;50.560;17.852;2024-01-30T00:11:58;101236.53;;;2.44;90.01
21728;BME280;11026;50.560;17.852;2024-01-30T00:14:26;101227.81;;;2.43;89.70
21728;BME280;11026;50.560;17.852;2024-01-30T00:16:53;101220.78;;;2.39;89.81
21728;BME280;11026;50.560;17.852;2024-01-30T00:19:20;101230.56;;;2.51;89.81
21728;BME280;11026;50.560;17.852;2024-01-30T00:21:50;101230.50;;;2.48;89.48
21728;BME280;11026;50.560;17.852;2024-01-30T00:24:18;101232.13;;;2.41;89.44
21728;BME280;11026;50.560;17.852;2024-01-30T00:26:45;101234.53;;;2.29;90.43
21728;BME280;11026;50.560;17.852;2024-01-30T00:29:12;101237.19;;;2.31;90.74
21728;BME280;11026;50.560;17.852;2024-01-30T00:31:46;101217.97;;;2.27;90.81
21728;BME280;11026;50.560;17.852;2024-01-30T00:34:13;101226.81;;;2.34;91.09
21728;BME280;11026;50.560;17.852;2024-01-30T00:36:40;101221.22;;;2.67;90.07
21728;BME280;11026;50.560;17.852;2024-01-30T00:39:07;101235.03;;;2.58;89.12
21728;BME280;11026;50.560;17.852;2024-01-30T00:41:36;101229.75;;;2.57;89.08
21728;BME280;11026;50.560;17.852;2024-01-30T00:44:03;101228.66;;;2.41;89.25
21728;BME280;11026;50.560;17.852;2024-01-30T00:46:32;101229.81;;;2.58;89.33
21728;BME280;11026;50.560;17.852;2024-01-30T00:49:02;101233.13;;;2.48;89.33
21728;BME280;11026;50.560;17.852;2024-01-30T00:51:30;101216.38;;;2.34;89.95
21728;BME280;11026;50.560;17.852;2024-01-30T00:53:58;101229.50;;;2.38;90.32
21728;BME280;11026;50.560;17.852;2024-01-30T00:56:27;101226.03;;;2.39;90.23
21728;BME280;11026;50.560;17.852;2024-01-30T00:58:55;101235.41;;;2.28;89.94
21728;BME280;11026;50.560;17.852;2024-01-30T01:01:23;101230.31;;;2.36;90.89
21728;BME280;11026;50.560;17.852;2024-01-30T01:03:50;101233.78;;;2.35;90.85
21728;BME280;11026;50.560;17.852;2024-01-30T01:06:18;101231.19;;;2.36;90.82
21728;BME280;11026;50.560;17.852;2024-01-30T01:08:45;101233.66;;;2.29;91.56
21728;BME280;11026;50.560;17.852;2024-01-30T01:11:11;101224.22;;;2.37;91.65
21728;BME280;11026;50.560;17.852;2024-01-30T01:13:41;101228.50;;;2.32;91.69
21728;BME280;11026;50.560;17.852;2024-01-30T01:16:09;101222.34;;;2.27;91.93
21728;BME280;11026;50.560;17.852;2024-01-30T01:18:37;101220.53;;;2.22;92.55
21728;BME280;11026;50.560;17.852;2024-01-30T01:21:05;101217.78;;;2.16;92.95
21728;BME280;11026;50.560;17.852;2024-01-30T01:23:32;101217.78;;;2.16;93.25
21728;BME280;11026;50.560;17.852;2024-01-30T01:25:59;101213.50;;;2.18;93.22
21728;BME280;11026;50.560;17.852;2024-01-30T01:28:27;101209.16;;;2.20;93.44
21728;BME280;11026;50.560;17.852;2024-01-30T01:30:55;101213.50;;;2.18;94.01
21728;BME280;11026;50.560;17.852;2024-01-30T01:33:26;101202.13;;;2.16;94.03
21728;BME280;11026;50.560;17.852;2024-01-30T01:35:53;101208.28;;;2.21;94.50
21728;BME280;11026;50.560;17.852;2024-01-30T01:38:21;101205.69;;;2.21;94.40
21728;BME280;11026;50.560;17.852;2024-01-30T01:40:51;101200.44;;;2.18;94.17
21728;BME280;11026;50.560;17.852;2024-01-30T01:43:18;101201.19;;;2.13;94.32
21728;BME280;11026;50.560;17.852;2024-01-30T01:45:46;101207.28;;;2.13;94.88
21728;BME280;11026;50.560;17.852;2024-01-30T01:48:13;101203.06;;;2.18;95.08
21728;BME280;11026;50.560;17.852;2024-01-30T01:50:42;101205.66;;;2.18;94.66
21728;BME280;11026;50.560;17.852;2024-01-30T01:53:10;101207.41;;;2.19;94.55
21728;BME280;11026;50.560;17.852;2024-01-30T01:55:38;101202.88;;;2.09;94.53
21728;BME280;11026;50.560;17.852;2024-01-30T01:58:05;101200.38;;;2.15;95.04
21728;BME280;11026;50.560;17.852;2024-01-30T02:03:18;101203.66;;;2.02;95.51
21728;BME280;11026;50.560;17.852;2024-01-30T02:05:50;101208.63;;;1.90;96.45
21728;BME280;11026;50.560;17.852;2024-01-30T02:08:17;101209.00;;;2.11;96.33
21728;BME280;11026;50.560;17.852;2024-01-30T02:10:45;101198.19;;;1.90;96.66
21728;BME280;11026;50.560;17.852;2024-01-30T02:13:12;101209.13;;;1.69;97.58
21728;BME280;11026;50.560;17.852;2024-01-30T02:15:41;101202.66;;;1.95;97.52
21728;BME280;11026;50.560;17.852;2024-01-30T02:18:08;101204.38;;;1.95;97.64
21728;BME280;11026;50.560;17.852;2024-01-30T02:20:37;101202.66;;;1.95;97.81
21728;BME280;11026;50.560;17.852;2024-01-30T02:23:09;101219.25;;;1.99;97.74
21728;BME280;11026;50.560;17.852;2024-01-30T02:25:42;101221.22;;;2.12;97.70
21728;BME280;11026;50.560;17.852;2024-01-30T02:28:14;101208.91;;;2.05;96.87
21728;BME280;11026;50.560;17.852;2024-01-30T02:30:46;101204.31;;;1.92;96.06
21728;BME280;11026;50.560;17.852;2024-01-30T02:33:13;101211.84;;;1.75;96.69
21728;BME280;11026;50.560;17.852;2024-01-30T02:35:41;101201.72;;;1.93;97.51
21728;BME280;11026;50.560;17.852;2024-01-30T02:38:08;101202.53;;;1.89;97.45
21728;BME280;11026;50.560;17.852;2024-01-30T02:40:35;101199.69;;;1.76;97.47
21728;BME280;11026;50.560;17.852;2024-01-30T02:43:06;101198.72;;;1.70;98.26
21728;BME280;11026;50.560;17.852;2024-01-30T02:45:33;101194.16;;;1.60;98.36
21728;BME280;11026;50.560;17.852;2024-01-30T02:48:00;101190.69;;;1.61;98.94
21728;BME280;11026;50.560;17.852;2024-01-30T02:50:28;101191.31;;;1.48;99.59
21728;BME280;11026;50.560;17.852;2024-01-30T02:52:55;101182.66;;;1.49;100.00
21728;BME280;11026;50.560;17.852;2024-01-30T02:55:22;101183.66;;;1.56;100.00
21728;BME280;11026;50.560;17.852;2024-01-30T02:57:49;101190.56;;;1.54;100.00
21728;BME280;11026;50.560;17.852;2024-01-30T03:00:17;101185.41;;;1.58;100.00
21728;BME280;11026;50.560;17.852;2024-01-30T03:02:46;101188.81;;;1.53;100.00
21728;BME280;11026;50.560;17.852;2024-01-30T03:05:15;101181.13;;;1.62;100.00
21728;BME280;11026;50.560;17.852;2024-01-30T03:07:46;101186.44;;;1.65;100.00
21728;BME280;11026;50.560;17.852;2024-01-30T03:10:19;101181.28;;;1.68;100.00
21728;BME280;11026;50.560;17.852;2024-01-30T03:12:46;101178.44;;;1.56;100.00
21728;BME280;11026;50.560;17.852;2024-01-30T03:15:13;101179.53;;;1.68;100.00
21728;BME280;11026;50.560;17.852;2024-01-30T03:17:40;101186.50;;;1.69;100.00
21728;BME280;11026;50.560;17.852;2024-01-30T03:20:08;101182.31;;;1.78;100.00
21728;BME280;11026;50.560;17.852;2024-01-30T03:22:41;101184.31;;;1.91;100.00
21728;BME280;11026;50.560;17.852;2024-01-30T03:25:08;101184.19;;;1.85;100.00
21728;BME280;11026;50.560;17.852;2024-01-30T03:27:35;101186.78;;;1.85;100.00
21728;BME280;11026;50.560;17.852;2024-01-30T03:30:02;101185.09;;;1.87;100.00
21728;BME280;11026;50.560;17.852;2024-01-30T03:32:29;101178.81;;;1.77;100.00
21728;BME280;11026;50.560;17.852;2024-01-30T03:34:56;101185.03;;;1.82;100.00
21728;BME280;11026;50.560;17.852;2024-01-30T03:37:23;101178.22;;;1.92;100.00
21728;BME280;11026;50.560;17.852;2024-01-30T03:39:51;101174.59;;;1.84;100.00
21728;BME280;11026;50.560;17.852;2024-01-30T03:42:19;101185.19;;;1.91;100.00
21728;BME280;11026;50.560;17.852;2024-01-30T03:44:47;101173.66;;;1.80;100.00
21728;BME280;11026;50.560;17.852;2024-01-30T03:47:14;101174.53;;;1.81;100.00
21728;BME280;11026;50.560;17.852;2024-01-30T03:49:41;101177.28;;;1.87;100.00
21728;BME280;11026;50.560;17.852;2024-01-30T03:52:08;101172.88;;;1.86;100.00
21728;BME280;11026;50.560;17.852;2024-01-30T03:54:37;101179.03;;;1.88;100.00
21728;BME280;11026;50.560;17.852;2024-01-30T03:57:04;101172.06;;;1.90;100.00
21728;BME280;11026;50.560;17.852;2024-01-30T03:59:32;101172.88;;;1.84;100.00
21728;BME280;11026;50.560;17.852;2024-01-30T04:01:59;101179.88;;;1.87;100.00
21728;BME280;11026;50.560;17.852;2024-01-30T04:04:30;101179.88;;;1.87;100.00
21728;BME280;11026;50.560;17.852;2024-01-30T04:06:57;101186.78;;;1.85;100.00
21728;BME280;11026;50.560;17.852;2024-01-30T04:09:25;101183.25;;;1.81;100.00
21728;BME280;11026;50.560;17.852;2024-01-30T04:11:54;101184.25;;;1.88;100.00
21728;BME280;11026;50.560;17.852;2024-01-30T04:14:24;101179.03;;;1.88;100.00
21728;BME280;11026;50.560;17.852;2024-01-30T04:16:52;101184.31;;;1.91;100.00
21728;BME280;11026;50.560;17.852;2024-01-30T04:19:20;101179.09;;;1.94;100.00
21728;BME280;11026;50.560;17.852;2024-01-30T04:21:49;101168.78;;;1.99;100.00
21728;BME280;11026;50.560;17.852;2024-01-30T04:24:16;101177.53;;;2.02;100.00
21728;BME280;11026;50.560;17.852;2024-01-30T04:26:47;101180.00;;;1.94;100.00
21728;BME280;11026;50.560;17.852;2024-01-30T04:29:14;101173.88;;;1.94;100.00
21728;BME280;11026;50.560;17.852;2024-01-30T04:31:41;101176.47;;;1.92;100.00
21728;BME280;11026;50.560;17.852;2024-01-30T04:34:10;101179.91;;;1.90;100.00
21728;BME280;11026;50.560;17.852;2024-01-30T04:36:38;101174.81;;;1.96;100.00
21728;BME280;11026;50.560;17.852;2024-01-30T04:39:08;101171.06;;;1.82;100.00
21728;BME280;11026;50.560;17.852;2024-01-30T04:41:36;101176.47;;;1.92;100.00
21728;BME280;11026;50.560;17.852;2024-01-30T04:44:03;101187.06;;;2.00;100.00
21728;BME280;11026;50.560;17.852;2024-01-30T04:46:34;101191.41;;;1.98;100.00
21728;BME280;11026;50.560;17.852;2024-01-30T04:49:01;101186.00;;;1.89;100.00
21728;BME280;11026;50.560;17.852;2024-01-30T04:51:31;101190.53;;;1.99;100.00
21728;BME280;11026;50.560;17.852;2024-01-30T04:53:59;101183.59;;;2.01;100.00
21728;BME280;11026;50.560;17.852;2024-01-30T04:56:26;101187.81;;;1.93;100.00
21728;BME280;11026;50.560;17.852;2024-01-30T04:58:54;101179.09;;;1.91;100.00
21728;BME280;11026;50.560;17.852;2024-01-30T05:01:21;101184.34;;;1.94;100.00
21728;BME280;11026;50.560;17.852;2024-01-30T05:03:48;101182.69;;;1.99;100.00
21728;BME280;11026;50.560;17.852;2024-01-30T05:06:26;101183.50;;;1.95;100.00
21728;BME280;11026;50.560;17.852;2024-01-30T05:08:54;101187.00;;;1.97;100.00
21728;BME280;11026;50.560;17.852;2024-01-30T05:11:22;101180.16;;;2.04;99.98
21728;BME280;11026;50.560;17.852;2024-01-30T05:13:49;101186.13;;;1.95;99.84
21728;BME280;11026;50.560;17.852;2024-01-30T05:16:17;101193.09;;;1.97;99.53
21728;BME280;11026;50.560;17.852;2024-01-30T05:18:46;101194.69;;;1.88;100.00
21728;BME280;11026;50.560;17.852;2024-01-30T05:21:13;101192.88;;;1.84;100.00
21728;BME280;11026;50.560;17.852;2024-01-30T05:23:40;101195.72;;;1.97;100.00
21728;BME280;11026;50.560;17.852;2024-01-30T05:26:08;101197.50;;;2.00;99.67
21728;BME280;11026;50.560;17.852;2024-01-30T05:28:37;101199.19;;;1.96;99.68
21728;BME280;11026;50.560;17.852;2024-01-30T05:31:06;101191.41;;;2.00;99.41
21728;BME280;11026;50.560;17.852;2024-01-30T05:33:34;101202.72;;;2.00;99.12
21728;BME280;11026;50.560;17.852;2024-01-30T05:36:03;101206.13;;;1.96;98.64
21728;BME280;11026;50.560;17.852;2024-01-30T05:38:32;101195.53;;;1.87;99.06
21728;BME280;11026;50.560;17.852;2024-01-30T05:41:00;101198.97;;;1.86;99.25
21728;BME280;11026;50.560;17.852;2024-01-30T05:43:27;101192.97;;;1.90;99.21
21728;BME280;11026;50.560;17.852;2024-01-30T05:45:54;101195.63;;;1.91;99.09
21728;BME280;11026;50.560;17.852;2024-01-30T05:48:21;101186.91;;;1.91;99.14
21728;BME280;11026;50.560;17.852;2024-01-30T05:50:48;101178.91;;;1.82;99.24
21728;BME280;11026;50.560;17.852;2024-01-30T05:53:15;101186.88;;;1.89;99.12
21728;BME280;11026;50.560;17.852;2024-01-30T05:55:42;101184.19;;;1.85;99.28
21728;BME280;11026;50.560;17.852;2024-01-30T05:58:09;101184.22;;;1.86;99.13
21728;BME280;11026;50.560;17.852;2024-01-30T06:00:36;101186.00;;;1.89;98.98
21728;BME280;11026;50.560;17.852;2024-01-30T06:03:03;101188.50;;;1.83;98.64
21728;BME280;11026;50.560;17.852;2024-01-30T06:05:30;101184.34;;;1.94;99.00
21728;BME280;11026;50.560;17.852;2024-01-30T06:07:58;101186.13;;;1.95;98.25
21728;BME280;11026;50.560;17.852;2024-01-30T06:10:25;101189.53;;;1.91;97.78
21728;BME280;11026;50.560;17.852;2024-01-30T06:12:53;101187.88;;;1.97;97.60
21728;BME280;11026;50.560;17.852;2024-01-30T06:15:21;101194.09;;;2.06;96.80
21728;BME280;11026;50.560;17.852;2024-01-30T06:17:48;101191.56;;;2.09;95.86
21728;BME280;11026;50.560;17.852;2024-01-30T06:20:15;101194.16;;;2.09;95.48
21728;BME280;11026;50.560;17.852;2024-01-30T06:22:43;101187.25;;;2.11;94.76
21728;BME280;11026;50.560;17.852;2024-01-30T06:25:11;101186.28;;;2.06;94.60
21728;BME280;11026;50.560;17.852;2024-01-30T06:27:40;101182.84;;;2.07;93.82
21728;BME280;11026;50.560;17.852;2024-01-30T06:30:07;101196.69;;;2.04;93.98
21728;BME280;11026;50.560;17.852;2024-01-30T06:32:40;101198.66;;;2.17;93.29
21728;BME280;11026;50.560;17.852;2024-01-30T06:35:08;101193.44;;;2.17;92.51
21728;BME280;11026;50.560;17.852;2024-01-30T06:37:37;101199.59;;;2.21;91.89
21728;BME280;11026;50.560;17.852;2024-01-30T06:40:04;101188.31;;;2.24;90.92
21728;BME280;11026;50.560;17.852;2024-01-30T06:42:32;101200.53;;;2.25;90.54
21728;BME280;11026;50.560;17.852;2024-01-30T06:45:00;101200.38;;;2.14;90.82
21728;BME280;11026;50.560;17.852;2024-01-30T06:47:28;101200.47;;;2.21;90.41
21728;BME280;11026;50.560;17.852;2024-01-30T06:50:01;101198.84;;;2.27;89.95
21728;BME280;11026;50.560;17.852;2024-01-30T06:52:29;101194.47;;;2.27;89.21
21728;BME280;11026;50.560;17.852;2024-01-30T06:54:57;101196.28;;;2.31;88.70
21728;BME280;11026;50.560;17.852;2024-01-30T06:57:24;101197.03;;;2.22;88.49
21728;BME280;11026;50.560;17.852;2024-01-30T06:59:53;101201.50;;;2.31;88.20
21728;BME280;11026;50.560;17.852;2024-01-30T07:02:21;101205.91;;;2.34;87.75
21728;BME280;11026;50.560;17.852;2024-01-30T07:04:51;101201.63;;;2.39;87.32
21728;BME280;11026;50.560;17.852;2024-01-30T07:07:19;101204.25;;;2.39;87.36
21728;BME280;11026;50.560;17.852;2024-01-30T07:09:47;101208.59;;;2.38;86.73
21728;BME280;11026;50.560;17.852;2024-01-30T07:12:18;101219.16;;;2.46;86.29
21728;BME280;11026;50.560;17.852;2024-01-30T07:14:46;101209.66;;;2.50;85.69
21728;BME280;11026;50.560;17.852;2024-01-30T07:17:14;101205.41;;;2.58;85.48
21728;BME280;11026;50.560;17.852;2024-01-30T07:19:43;101219.47;;;2.66;84.74
21728;BME280;11026;50.560;17.852;2024-01-30T07:22:10;101209.94;;;2.69;84.03
21728;BME280;11026;50.560;17.852;2024-01-30T07:24:43;101210.03;;;2.76;83.75
21728;BME280;11026;50.560;17.852;2024-01-30T07:27:16;101210.88;;;2.75;83.43
21728;BME280;11026;50.560;17.852;2024-01-30T07:29:50;101219.59;;;2.75;83.64
21728;BME280;11026;50.560;17.852;2024-01-30T07:32:17;101212.03;;;2.95;82.40
21728;BME280;11026;50.560;17.852;2024-01-30T07:34:45;101204.34;;;3.06;81.76
21728;BME280;11026;50.560;17.852;2024-01-30T07:37:34;101194.88;;;3.15;80.76
21728;BME280;11026;50.560;17.852;2024-01-30T07:40:02;101199.22;;;3.13;80.30
21728;BME280;11026;50.560;17.852;2024-01-30T07:42:31;101201.19;;;3.31;79.04
21728;BME280;11026;50.560;17.852;2024-01-30T07:45:00;101201.22;;;3.36;78.50
21728;BME280;11026;50.560;17.852;2024-01-30T07:47:28;101207.47;;;3.47;77.82
21728;BME280;11026;50.560;17.852;2024-01-30T07:49:56;101212.72;;;3.47;77.29
21728;BME280;11026;50.560;17.852;2024-01-30T07:52:23;101211.91;;;3.53;77.56
21728;BME280;11026;50.560;17.852;2024-01-30T07:54:51;101214.66;;;3.65;76.87
21728;BME280;11026;50.560;17.852;2024-01-30T07:57:21;101210.34;;;3.70;76.17
21728;BME280;11026;50.560;17.852;2024-01-30T07:59:52;101214.84;;;3.83;75.21
21728;BME280;11026;50.560;17.852;2024-01-30T08:02:19;101213.22;;;3.93;74.29
21728;BME280;11026;50.560;17.852;2024-01-30T08:04:47;101210.56;;;3.91;74.49
21728;BME280;11026;50.560;17.852;2024-01-30T08:07:18;101203.84;;;4.18;73.45
21728;BME280;11026;50.560;17.852;2024-01-30T08:09:46;101207.41;;;4.25;72.47
21728;BME280;11026;50.560;17.852;2024-01-30T08:12:14;101203.00;;;4.24;72.13
21728;BME280;11026;50.560;17.852;2024-01-30T08:14:41;101210.16;;;4.43;71.04
21728;BME280;11026;50.560;17.852;2024-01-30T08:17:08;101206.78;;;4.56;69.82
21728;BME280;11026;50.560;17.852;2024-01-30T08:19:36;101207.69;;;4.60;69.38
21728;BME280;11026;50.560;17.852;2024-01-30T08:22:03;101205.13;;;4.74;68.94
21728;BME280;11026;50.560;17.852;2024-01-30T08:24:30;101204.31;;;4.79;68.24
21728;BME280;11026;50.560;17.852;2024-01-30T08:26:57;101206.94;;;4.87;68.26
21728;BME280;11026;50.560;17.852;2024-01-30T08:29:25;101200.91;;;4.99;67.41
21728;BME280;11026;50.560;17.852;2024-01-30T08:31:52;101211.50;;;5.11;66.19
21728;BME280;11026;50.560;17.852;2024-01-30T08:34:20;101201.88;;;5.11;65.76
21728;BME280;11026;50.560;17.852;2024-01-30T08:36:48;101212.41;;;5.30;65.15
21728;BME280;11026;50.560;17.852;2024-01-30T08:39:15;101208.13;;;5.44;64.56
21728;BME280;11026;50.560;17.852;2024-01-30T08:41:42;101201.16;;;5.51;63.70
21728;BME280;11026;50.560;17.852;2024-01-30T08:44:10;101199.41;;;5.60;63.86
21728;BME280;11026;50.560;17.852;2024-01-30T08:46:38;101196.84;;;5.74;62.82
21728;BME280;11026;50.560;17.852;2024-01-30T08:49:06;101203.00;;;5.82;62.29
21728;BME280;11026;50.560;17.852;2024-01-30T08:51:33;101203.91;;;5.92;62.39
21728;BME280;11026;50.560;17.852;2024-01-30T08:54:01;101203.03;;;6.04;61.20
21728;BME280;11026;50.560;17.852;2024-01-30T08:56:28;101196.03;;;6.07;61.08
21728;BME280;11026;50.560;17.852;2024-01-30T08:58:55;101196.91;;;6.20;59.92
21728;BME280;11026;50.560;17.852;2024-01-30T09:01:22;101189.91;;;6.33;60.12
21728;BME280;11026;50.560;17.852;2024-01-30T09:03:49;101194.28;;;6.71;58.64
21728;BME280;11026;50.560;17.852;2024-01-30T09:06:16;101187.84;;;7.51;56.96
21728;BME280;11026;50.560;17.852;2024-01-30T09:08:44;101186.75;;;8.92;54.80
21728;BME280;11026;50.560;17.852;2024-01-30T09:11:17;101179.31;;;9.91;50.28
21728;BME280;11026;50.560;17.852;2024-01-30T09:13:45;101180.31;;;10.89;48.59
21728;BME280;11026;50.560;17.852;2024-01-30T09:16:12;101174.03;;;11.78;46.00
21728;BME280;11026;50.560;17.852;2024-01-30T09:18:40;101167.72;;;11.86;44.48
21728;BME280;11026;50.560;17.852;2024-01-30T09:21:08;101173.84;;;12.23;43.61
21728;BME280;11026;50.560;17.852;2024-01-30T09:23:35;101175.47;;;12.97;43.65
21728;BME280;11026;50.560;17.852;2024-01-30T09:26:01;101175.06;;;12.80;41.71
21728;BME280;11026;50.560;17.852;2024-01-30T09:28:29;101182.25;;;13.40;41.34
21728;BME280;11026;50.560;17.852;2024-01-30T09:30:57;101186.03;;;12.66;41.11
21728;BME280;11026;50.560;17.852;2024-01-30T09:33:24;101182.03;;;12.51;42.28
21728;BME280;11026;50.560;17.852;2024-01-30T09:35:51;101179.44;;;12.81;41.85
21728;BME280;11026;50.560;17.852;2024-01-30T09:38:19;101177.16;;;12.33;41.31
21728;BME280;11026;50.560;17.852;2024-01-30T09:40:53;101172.03;;;11.90;42.06
21728;BME280;11026;50.560;17.852;2024-01-30T09:43:23;101168.81;;;11.74;43.36
21728;BME280;11026;50.560;17.852;2024-01-30T09:45:57;101165.75;;;11.52;42.83
21728;BME280;11026;50.560;17.852;2024-01-30T09:48:25;101167.53;;;11.53;43.40
21728;BME280;11026;50.560;17.852;2024-01-30T09:50:57;101167.97;;;12.12;42.85
21728;BME280;11026;50.560;17.852;2024-01-30T09:53:25;101161.78;;;12.80;41.28
21728;BME280;11026;50.560;17.852;2024-01-30T09:55:53;101162.63;;;13.44;39.90
21728;BME280;11026;50.560;17.852;2024-01-30T09:58:21;101155.50;;;13.14;40.60
21728;BME280;11026;50.560;17.852;2024-01-30T10:00:50;101172.78;;;12.99;39.84
21728;BME280;11026;50.560;17.852;2024-01-30T10:03:17;101164.03;;;13.56;40.21
21728;BME280;11026;50.560;17.852;2024-01-30T10:05:51;101162.97;;;13.01;39.85
21728;BME280;11026;50.560;17.852;2024-01-30T10:08:21;101158.75;;;13.25;39.07
21728;BME280;11026;50.560;17.852;2024-01-30T10:10:49;101161.03;;;12.75;40.14
21728;BME280;11026;50.560;17.852;2024-01-30T10:13:16;101158.69;;;12.63;40.16
21728;BME280;11026;50.560;17.852;2024-01-30T10:15:44;101156.59;;;12.41;41.16
21728;BME280;11026;50.560;17.852;2024-01-30T10:18:12;101158.13;;;12.84;39.84
21728;BME280;11026;50.560;17.852;2024-01-30T10:20:42;101155.28;;;13.82;39.32
21728;BME280;11026;50.560;17.852;2024-01-30T10:23:09;101140.78;;;13.03;38.81
21728;BME280;11026;50.560;17.852;2024-01-30T10:25:37;101149.47;;;12.09;40.38
21728;BME280;11026;50.560;17.852;2024-01-30T10:28:05;101147.69;;;12.10;40.74
21728;BME280;11026;50.560;17.852;2024-01-30T10:30:33;101143.69;;;11.92;41.13
21728;BME280;11026;50.560;17.852;2024-01-30T10:33:00;101131.91;;;12.72;41.07
21728;BME280;11026;50.560;17.852;2024-01-30T10:35:27;101122.66;;;13.47;39.60
21728;BME280;11026;50.560;17.852;2024-01-30T10:37:56;101129.75;;;14.03;39.18
21728;BME280;11026;50.560;17.852;2024-01-30T10:40:29;101118.19;;;14.04;38.15
21728;BME280;11026;50.560;17.852;2024-01-30T10:43:01;101113.31;;;12.72;39.19
21728;BME280;11026;50.560;17.852;2024-01-30T10:45:31;101121.28;;;12.03;39.89
21728;BME280;11026;50.560;17.852;2024-01-30T10:47:59;101109.44;;;13.15;39.83
21728;BME280;11026;50.560;17.852;2024-01-30T10:50:30;101107.56;;;13.76;38.33
21728;BME280;11026;50.560;17.852;2024-01-30T10:52:59;101098.75;;;13.46;38.46
21728;BME280;11026;50.560;17.852;2024-01-30T10:55:28;101102.31;;;12.86;38.81
21728;BME280;11026;50.560;17.852;2024-01-30T10:57:56;101102.28;;;13.17;39.54
21728;BME280;11026;50.560;17.852;2024-01-30T11:00:24;101085.22;;;14.35;38.34
21728;BME280;11026;50.560;17.852;2024-01-30T11:02:56;101100.06;;;13.89;37.75
21728;BME280;11026;50.560;17.852;2024-01-30T11:05:24;101088.81;;;13.52;38.59
21728;BME280;11026;50.560;17.852;2024-01-30T11:08:24;101094.13;;;12.93;38.54
21728;BME280;11026;50.560;17.852;2024-01-30T11:10:56;101091.66;;;14.01;38.51
21728;BME280;11026;50.560;17.852;2024-01-30T11:13:30;101092.19;;;13.29;38.18
21728;BME280;11026;50.560;17.852;2024-01-30T11:16:06;101083.94;;;14.45;37.31
21728;BME280;11026;50.560;17.852;2024-01-30T11:18:35;101072.69;;;15.56;36.74
21728;BME280;11026;50.560;17.852;2024-01-30T11:21:06;101079.50;;;15.63;35.66
21728;BME280;11026;50.560;17.852;2024-01-30T11:23:33;101080.38;;;13.94;37.38
21728;BME280;11026;50.560;17.852;2024-01-30T11:26:06;101074.31;;;14.67;36.39
21728;BME280;11026;50.560;17.852;2024-01-30T11:28:33;101070.88;;;15.34;36.36
21728;BME280;11026;50.560;17.852;2024-01-30T11:31:05;101082.03;;;15.22;35.73
21728;BME280;11026;50.560;17.852;2024-01-30T11:33:35;101072.44;;;15.62;35.43
21728;BME280;11026;50.560;17.852;2024-01-30T11:36:02;101072.69;;;15.56;35.03
21728;BME280;11026;50.560;17.852;2024-01-30T11:38:31;101064.19;;;15.46;34.82
21728;BME280;11026;50.560;17.852;2024-01-30T11:41:00;101061.91;;;15.59;34.63
21728;BME280;11026;50.560;17.852;2024-01-30T11:43:30;101070.94;;;14.37;36.42
21728;BME280;11026;50.560;17.852;2024-01-30T11:45:58;101058.69;;;14.07;37.19
21728;BME280;11026;50.560;17.852;2024-01-30T11:48:26;101065.22;;;13.70;37.15
21728;BME280;11026;50.560;17.852;2024-01-30T11:50:54;101054.41;;;13.48;37.83
21728;BME280;11026;50.560;17.852;2024-01-30T11:53:21;101063.91;;;12.97;37.20
21728;BME280;11026;50.560;17.852;2024-01-30T11:55:50;101059.28;;;12.73;37.68
21728;BME280;11026;50.560;17.852;2024-01-30T11:58:17;101065.78;;;12.30;38.12
21728;BME280;11026;50.560;17.852;2024-01-30T12:00:56;101048.22;;;12.26;38.12
21728;BME280;11026;50.560;17.852;2024-01-30T12:03:23;101057.50;;;12.10;38.59
21728;BME280;11026;50.560;17.852;2024-01-30T12:05:57;101044.44;;;12.67;39.06
21728;BME280;11026;50.560;17.852;2024-01-30T12:08:27;101041.75;;;13.28;39.16
21728;BME280;11026;50.560;17.852;2024-01-30T12:10:56;101049.84;;;13.80;38.10
21728;BME280;11026;50.560;17.852;2024-01-30T12:13:25;101050.97;;;12.54;37.63
21728;BME280;11026;50.560;17.852;2024-01-30T12:16:01;101042.22;;;12.50;38.56
21728;BME280;11026;50.560;17.852;2024-01-30T12:18:31;101037.53;;;12.60;38.53
21728;BME280;11026;50.560;17.852;2024-01-30T12:20:59;101045.84;;;12.48;38.50
21728;BME280;11026;50.560;17.852;2024-01-30T12:23:28;101035.09;;;12.52;39.00
21728;BME280;11026;50.560;17.852;2024-01-30T12:25:56;101031.25;;;13.22;38.26
21728;BME280;11026;50.560;17.852;2024-01-30T12:28:23;101043.09;;;13.12;36.91
21728;BME280;11026;50.560;17.852;2024-01-30T12:30:55;101031.66;;;13.66;37.99
21728;BME280;11026;50.560;17.852;2024-01-30T12:33:26;101024.19;;;13.77;37.11
21728;BME280;11026;50.560;17.852;2024-01-30T12:35:56;101014.38;;;14.56;36.42
21728;BME280;11026;50.560;17.852;2024-01-30T12:38:29;101011.31;;;14.90;35.45
21728;BME280;11026;50.560;17.852;2024-01-30T12:40:57;101011.50;;;13.85;36.57
21728;BME280;11026;50.560;17.852;2024-01-30T12:43:25;101024.22;;;13.21;37.11
21728;BME280;11026;50.560;17.852;2024-01-30T12:46:04;101035.09;;;12.52;38.03
21728;BME280;11026;50.560;17.852;2024-01-30T12:48:33;101027.91;;;12.25;38.74
21728;BME280;11026;50.560;17.852;2024-01-30T12:51:04;101029.44;;;11.99;39.13
21728;BME280;11026;50.560;17.852;2024-01-30T12:53:32;101018.75;;;12.66;39.12
21728;BME280;11026;50.560;17.852;2024-01-30T12:56:00;101009.66;;;13.62;37.37